createdAt,value
2018-04-10T00:01:38.589Z,72.50
2018-04-10T00:04:05.799Z,72.60
2018-04-10T00:06:32.127Z,72.60
2018-04-10T00:08:58.616Z,72.50
2018-04-10T00:11:25.225Z,72.40
2018-04-10T00:13:51.633Z,72.70
2018-04-10T00:16:18.046Z,72.80
2018-04-10T00:18:44.387Z,73.50
2018-04-10T00:21:10.748Z,73.70
2018-04-10T00:23:37.114Z,73.80
2018-04-10T00:26:03.501Z,73.70
2018-04-10T00:28:29.933Z,73.90
2018-04-10T00:30:56.330Z,74.00
2018-04-10T00:33:22.720Z,73.70
2018-04-10T00:35:49.809Z,74.50
2018-04-10T00:38:16.238Z,73.70
2018-04-10T00:40:42.655Z,74.40
2018-04-10T00:43:09.016Z,74.50
2018-04-10T00:45:35.524Z,75.10
2018-04-10T00:48:01.864Z,75.10
2018-04-10T00:50:28.211Z,75.20
2018-04-10T00:53:13.185Z,75.40
2018-04-10T00:55:39.541Z,75.60
2018-04-10T00:58:05.893Z,75.50
2018-04-10T01:00:33.023Z,75.30
2018-04-10T01:02:59.341Z,75.30
2018-04-10T01:05:25.703Z,75.70
2018-04-10T01:07:52.877Z,75.70
2018-04-10T01:10:19.203Z,75.60
2018-04-10T01:12:45.805Z,75.30
2018-04-10T01:15:12.176Z,75.70
2018-04-10T01:17:38.502Z,75.30
2018-04-10T01:20:04.835Z,76.20
2018-04-10T01:22:31.235Z,76.70
2018-04-10T01:24:57.621Z,77.30
2018-04-10T01:27:23.963Z,77.60
2018-04-10T01:29:50.431Z,78.00
2018-04-10T01:32:16.869Z,78.00
2018-04-10T01:34:44.039Z,77.60
2018-04-10T01:37:10.379Z,77.50
2018-04-10T01:39:37.020Z,77.00
2018-04-10T01:42:03.450Z,76.90
2018-04-10T01:44:30.600Z,77.10
2018-04-10T01:46:56.970Z,77.10
2018-04-10T01:49:23.344Z,77.00
2018-04-10T01:51:50.492Z,78.10
2018-04-10T01:54:17.599Z,78.50
2018-04-10T01:56:44.015Z,78.50
2018-04-10T01:59:10.467Z,78.30
2018-04-10T02:01:36.849Z,78.20
2018-04-10T02:04:03.300Z,78.00
2018-04-10T02:06:29.629Z,77.60
2018-04-10T02:08:56.782Z,77.60
2018-04-10T02:11:47.896Z,77.60
2018-04-10T02:14:14.407Z,77.50
2018-04-10T02:16:40.917Z,77.70
2018-04-10T02:19:07.417Z,77.40
2018-04-10T02:21:33.915Z,77.60
2018-04-10T02:24:00.415Z,77.80
2018-04-10T02:26:26.908Z,78.20
2018-04-10T02:28:53.381Z,78.60
2018-04-10T02:31:19.883Z,78.50
2018-04-10T02:33:46.388Z,78.60
2018-04-10T02:36:12.823Z,78.50
2018-04-10T02:38:39.324Z,78.70
2018-04-10T02:41:05.795Z,78.80
2018-04-10T02:43:32.287Z,78.30
2018-04-10T02:45:58.820Z,78.00
2018-04-10T02:48:25.304Z,78.60
2018-04-10T02:50:51.797Z,78.70
2018-04-10T02:53:18.229Z,78.90
2018-04-10T02:55:44.765Z,79.80
2018-04-10T02:58:11.256Z,79.20
2018-04-10T03:00:37.733Z,79.10
2018-04-10T03:03:04.954Z,79.30
2018-04-10T03:05:31.435Z,79.10
2018-04-10T03:07:58.042Z,79.20
2018-04-10T03:10:24.499Z,79.20
2018-04-10T03:12:51.826Z,79.00
2018-04-10T03:15:18.355Z,79.00
2018-04-10T03:17:44.856Z,80.20
2018-04-10T03:20:11.611Z,80.60
2018-04-10T03:22:38.096Z,80.80
2018-04-10T03:25:04.630Z,81.30
2018-04-10T03:27:31.135Z,81.30
2018-04-10T03:29:57.568Z,81.50
2018-04-10T03:32:24.116Z,81.50
2018-04-10T03:34:50.579Z,81.20
2018-04-10T03:37:17.114Z,81.20
2018-04-10T03:39:43.660Z,81.00
2018-04-10T03:42:10.116Z,81.00
2018-04-10T03:44:37.387Z,81.00
2018-04-10T03:47:03.824Z,81.00
2018-04-10T03:49:30.332Z,81.00
2018-04-10T03:51:56.813Z,81.00
2018-04-10T03:54:23.176Z,80.90
2018-04-10T03:56:49.611Z,82.00
2018-04-10T03:59:15.982Z,81.00
2018-04-10T04:01:42.327Z,81.00
2018-04-10T04:04:08.682Z,82.10
2018-04-10T04:06:35.826Z,81.70
2018-04-10T04:09:02.463Z,81.70
2018-04-10T04:11:28.819Z,81.60
2018-04-10T04:13:55.226Z,81.00
2018-04-10T04:16:39.915Z,81.40
2018-04-10T04:19:24.687Z,81.60
2018-04-10T04:22:16.540Z,81.60
2018-04-10T04:24:42.923Z,81.60
2018-04-10T04:27:09.992Z,81.80
2018-04-10T04:29:36.378Z,81.70
2018-04-10T04:32:03.755Z,81.40
2018-04-10T04:34:30.841Z,81.40
2018-04-10T04:36:58.055Z,81.40
2018-04-10T04:39:25.140Z,81.20
2018-04-10T04:41:51.668Z,81.20
2018-04-10T04:44:18.007Z,81.30
2018-04-10T04:46:44.343Z,81.60
2018-04-10T04:49:10.734Z,81.50
2018-04-10T04:51:37.123Z,81.80
2018-04-10T04:54:03.563Z,81.90
2018-04-10T04:56:29.911Z,81.80
2018-04-10T04:58:56.301Z,81.80
2018-04-10T05:01:22.656Z,81.60
2018-04-10T05:03:49.008Z,81.90
2018-04-10T05:06:15.447Z,81.90
2018-04-10T05:08:42.613Z,81.80
2018-04-10T05:11:09.059Z,81.80
2018-04-10T05:13:35.455Z,81.80
2018-04-10T05:16:02.535Z,81.70
2018-04-10T05:18:28.997Z,81.70
2018-04-10T05:20:55.347Z,82.00
2018-04-10T05:23:21.692Z,81.60
2018-04-10T05:25:48.816Z,81.00
2018-04-10T05:28:15.253Z,81.00
2018-04-10T05:30:41.664Z,80.90
2018-04-10T05:33:08.017Z,80.70
2018-04-10T05:35:34.505Z,80.40
2018-04-10T05:38:00.915Z,80.30
2018-04-10T05:40:28.001Z,80.40
2018-04-10T05:42:55.148Z,80.50
2018-04-10T05:45:21.554Z,80.40
2018-04-10T05:47:48.644Z,79.90
2018-04-10T05:50:15.017Z,79.90
2018-04-10T05:52:41.423Z,79.80
2018-04-10T05:55:07.856Z,79.70
2018-04-10T05:57:34.272Z,79.80
2018-04-10T06:00:00.754Z,79.30
2018-04-10T06:02:27.884Z,79.80
2018-04-10T06:04:54.217Z,79.80
2018-04-10T06:07:20.647Z,79.80
2018-04-10T06:09:47.101Z,79.00
2018-04-10T06:12:14.196Z,79.20
2018-04-10T06:14:40.583Z,79.20
2018-04-10T06:17:07.092Z,79.10
2018-04-10T06:19:33.524Z,79.30
2018-04-10T06:21:59.877Z,79.80
2018-04-10T06:24:26.988Z,79.10
2018-04-10T06:26:53.368Z,78.90
2018-04-10T06:29:19.781Z,78.10
2018-04-10T06:31:46.192Z,77.70
2018-04-10T06:34:12.549Z,77.40
2018-04-10T06:36:38.891Z,76.80
2018-04-10T06:39:05.315Z,76.30
2018-04-10T06:41:32.481Z,75.70
2018-04-10T06:43:59.175Z,75.60
2018-04-10T06:46:25.668Z,75.20
2018-04-10T06:48:52.058Z,74.90
2018-04-10T06:51:18.395Z,75.70
2018-04-10T06:53:44.831Z,74.60
2018-04-10T06:56:11.260Z,74.30
2018-04-10T06:58:37.669Z,74.30
2018-04-10T07:01:04.101Z,73.80
2018-04-10T07:03:30.453Z,73.80
2018-04-10T07:05:57.576Z,73.70
2018-04-10T07:08:23.970Z,73.70
2018-04-10T07:10:50.477Z,73.80
2018-04-10T07:13:17.657Z,71.90
2018-04-10T07:15:44.733Z,73.00
2018-04-10T07:18:11.099Z,73.00
2018-04-10T07:20:37.510Z,71.50
2018-04-10T07:23:03.869Z,70.00
2018-04-10T07:25:31.003Z,67.90
2018-04-10T07:27:57.390Z,67.90
2018-04-10T07:30:23.747Z,67.30
2018-04-10T07:32:50.172Z,69.70
2018-04-10T07:35:16.508Z,66.80
2018-04-10T07:37:42.925Z,65.10
2018-04-10T07:40:09.304Z,64.60
2018-04-10T07:42:35.723Z,63.90
2018-04-10T07:45:02.220Z,63.60
2018-04-10T07:47:28.607Z,64.00
2018-04-10T07:49:55.712Z,62.10
2018-04-10T07:52:22.075Z,62.10
2018-04-10T07:54:49.210Z,62.00
2018-04-10T07:57:15.608Z,62.00
2018-04-10T07:59:41.967Z,61.70
2018-04-10T08:02:08.394Z,61.40
2018-04-10T08:04:34.759Z,60.80
2018-04-10T08:07:02.280Z,62.20
2018-04-10T08:09:28.846Z,62.20
2018-04-10T08:11:55.960Z,62.30
2018-04-10T08:14:22.404Z,62.20
2018-04-10T08:16:48.853Z,62.20
2018-04-10T08:19:15.359Z,61.80
2018-04-10T08:21:42.026Z,60.50
2018-04-10T08:24:08.420Z,59.80
2018-04-10T08:26:34.818Z,58.80
2018-04-10T08:29:02.019Z,58.80
2018-04-10T08:31:28.496Z,58.70
2018-04-10T08:33:54.938Z,59.40
2018-04-10T08:36:21.355Z,58.20
2018-04-10T08:38:48.577Z,57.50
2018-04-10T08:41:15.035Z,57.50
2018-04-10T08:43:41.392Z,56.80
2018-04-10T08:46:07.907Z,56.10
2018-04-10T08:48:35.000Z,56.90
2018-04-10T08:51:01.418Z,56.90
2018-04-10T08:53:27.774Z,57.60
2018-04-10T08:55:54.175Z,55.70
2018-04-10T08:58:21.395Z,55.50
2018-04-10T09:00:48.598Z,55.50
2018-04-10T09:03:14.974Z,55.50
2018-04-10T09:05:41.406Z,54.20
2018-04-10T09:08:07.864Z,54.10
2018-04-10T09:10:34.305Z,54.00
2018-04-10T09:13:00.804Z,53.60
2018-04-10T09:15:27.275Z,53.60
2018-04-10T09:17:53.693Z,52.40
2018-04-10T09:20:20.817Z,53.00
2018-04-10T09:22:47.276Z,53.00
2018-04-10T09:25:14.530Z,52.80
2018-04-10T09:27:40.978Z,52.80
2018-04-10T09:30:07.435Z,52.80
2018-04-10T09:32:34.265Z,52.10
2018-04-10T09:35:00.816Z,52.70
2018-04-10T09:37:27.301Z,53.50
2018-04-10T09:39:53.804Z,53.90
2018-04-10T09:42:20.250Z,54.10
2018-04-10T09:44:47.457Z,54.50
2018-04-10T09:47:13.967Z,54.50
2018-04-10T09:49:40.409Z,54.10
2018-04-10T09:52:06.859Z,54.20
2018-04-10T09:54:33.359Z,54.20
2018-04-10T09:57:00.227Z,54.70
2018-04-10T09:59:28.720Z,55.30
2018-04-10T10:01:55.265Z,56.10
2018-04-10T10:04:21.679Z,56.40
2018-04-10T10:06:48.256Z,56.60
2018-04-10T10:09:14.818Z,56.50
2018-04-10T10:11:41.538Z,56.50
2018-04-10T10:14:08.876Z,56.30
2018-04-10T10:16:35.343Z,56.20
2018-04-10T10:19:01.933Z,54.90
2018-04-10T10:21:28.448Z,55.30
2018-04-10T10:23:54.988Z,54.80
2018-04-10T10:26:21.467Z,54.50
2018-04-10T10:28:48.745Z,53.30
2018-04-10T10:31:15.255Z,53.20
2018-04-10T10:33:41.701Z,52.50
2018-04-10T10:36:08.232Z,53.00
2018-04-10T10:38:36.514Z,52.20
2018-04-10T10:41:03.671Z,52.20
2018-04-10T10:43:30.279Z,51.90
2018-04-10T10:45:56.777Z,52.10
2018-04-10T10:48:23.250Z,52.50
2018-04-10T10:50:49.762Z,51.80
2018-04-10T10:53:16.588Z,52.10
2018-04-10T10:55:43.155Z,51.80
2018-04-10T10:58:09.603Z,51.00
2018-04-10T11:00:36.165Z,50.10
2018-04-10T11:03:02.765Z,49.80
2018-04-10T11:05:29.226Z,49.30
2018-04-10T11:07:56.542Z,48.90
2018-04-10T11:10:22.879Z,55.90
2018-04-10T11:12:49.450Z,56.30
2018-04-10T11:15:15.883Z,52.10
2018-04-10T11:17:42.952Z,50.80
2018-04-10T11:20:09.321Z,50.80
2018-04-10T11:22:35.675Z,51.80
2018-04-10T11:25:02.805Z,53.20
2018-04-10T11:27:29.139Z,53.20
2018-04-10T11:29:55.595Z,53.50
2018-04-10T11:32:22.128Z,54.30
2018-04-10T11:34:49.388Z,57.40
2018-04-10T11:37:16.820Z,57.90
2018-04-10T11:39:44.053Z,58.90
2018-04-10T11:42:10.522Z,58.90
2018-04-10T11:44:37.857Z,65.60
2018-04-10T11:47:04.321Z,65.60
2018-04-10T11:49:30.846Z,68.00
2018-04-10T11:51:57.349Z,70.90
2018-04-10T11:54:23.948Z,71.20
2018-04-10T11:56:50.439Z,72.00
2018-04-10T11:59:17.880Z,74.90
2018-04-10T12:01:44.334Z,74.80
2018-04-10T12:04:11.600Z,77.30
2018-04-10T12:06:39.285Z,77.30
2018-04-10T12:09:06.745Z,80.50
2018-04-10T12:11:34.092Z,80.50
2018-04-10T12:14:00.888Z,75.00
2018-04-10T12:16:27.340Z,72.90
2018-04-10T12:18:55.613Z,75.60
2018-04-10T12:21:22.862Z,74.70
2018-04-10T12:23:50.299Z,74.70
2018-04-10T12:26:17.576Z,66.90
2018-04-10T12:28:44.152Z,66.90
2018-04-10T12:31:10.637Z,64.70
2018-04-10T12:33:38.328Z,56.10
2018-04-10T12:36:04.995Z,56.10
2018-04-10T12:38:31.550Z,55.50
2018-04-10T12:40:58.813Z,49.90
2018-04-10T12:43:25.374Z,49.90
2018-04-10T12:45:51.847Z,50.00
2018-04-10T12:48:18.312Z,51.60
2018-04-10T12:50:44.964Z,51.40
2018-04-10T12:53:12.312Z,49.20
2018-04-10T12:55:38.875Z,49.10
2018-04-10T12:58:06.195Z,44.30
2018-04-10T13:00:32.728Z,42.90
2018-04-10T13:02:59.208Z,44.70
2018-04-10T13:05:25.717Z,45.40
2018-04-10T13:07:52.928Z,45.30
2018-04-10T13:10:19.384Z,45.30
2018-04-10T13:12:45.820Z,42.80
2018-04-10T13:15:12.312Z,42.20
2018-04-10T13:17:38.733Z,39.50
2018-04-10T13:20:05.217Z,41.10
2018-04-10T13:22:31.651Z,39.50
2018-04-10T13:24:58.080Z,37.40
2018-04-10T13:27:24.559Z,37.80
2018-04-10T13:29:50.959Z,40.90
2018-04-10T13:32:17.353Z,39.90
2018-04-10T13:34:43.762Z,40.60
2018-04-10T13:37:10.263Z,41.40
2018-04-10T13:39:36.909Z,43.40
2018-04-10T13:42:03.958Z,44.20
2018-04-10T13:44:30.480Z,44.80
2018-04-10T13:46:57.024Z,46.20
2018-04-10T13:49:24.212Z,47.30
2018-04-10T13:51:51.474Z,47.20
2018-04-10T13:54:18.902Z,47.20
2018-04-10T13:56:45.360Z,48.00
2018-04-10T13:59:11.983Z,48.50
2018-04-10T14:01:38.561Z,49.70
2018-04-10T14:04:05.147Z,50.10
2018-04-10T14:06:34.064Z,49.80
2018-04-10T14:09:01.128Z,49.70
2018-04-10T14:11:27.744Z,50.90
2018-04-10T14:13:54.284Z,51.80
2018-04-10T14:16:21.279Z,58.00
2018-04-10T14:18:47.928Z,61.70
2018-04-10T14:21:14.458Z,65.40
2018-04-10T14:23:41.084Z,67.40
2018-04-10T14:26:07.646Z,70.50
2018-04-10T14:28:34.338Z,72.70
2018-04-10T14:31:00.865Z,72.50
2018-04-10T14:33:27.510Z,72.40
2018-04-10T14:35:54.220Z,72.90
2018-04-10T14:38:20.935Z,73.50
2018-04-10T14:40:47.548Z,75.90
2018-04-10T14:43:14.294Z,76.70
2018-04-10T14:45:41.158Z,76.30
2018-04-10T14:48:07.981Z,76.40
2018-04-10T14:50:34.702Z,76.90
2018-04-10T14:53:01.364Z,78.70
2018-04-10T14:55:28.184Z,78.00
2018-04-10T14:57:55.703Z,75.80
2018-04-10T15:00:23.279Z,73.10
2018-04-10T15:02:49.983Z,73.30
2018-04-10T15:05:17.542Z,75.10
2018-04-10T15:07:44.500Z,75.10
2018-04-10T15:10:11.230Z,76.40
2018-04-10T15:12:38.044Z,77.70
2018-04-10T15:15:05.575Z,77.50
2018-04-10T15:17:32.529Z,77.50
2018-04-10T15:19:59.281Z,76.90
2018-04-10T15:22:26.736Z,77.10
2018-04-10T15:24:54.397Z,77.70
2018-04-10T15:27:21.906Z,78.00
2018-04-10T15:29:48.787Z,77.90
2018-04-10T15:32:16.401Z,77.50
2018-04-10T15:34:43.204Z,78.40
2018-04-10T15:37:10.753Z,79.10
2018-04-10T15:39:37.646Z,79.10
2018-04-10T15:42:04.488Z,79.90
2018-04-10T15:44:31.349Z,79.80
2018-04-10T15:46:58.252Z,79.80
2018-04-10T15:49:25.672Z,78.30
2018-04-10T15:51:52.502Z,79.30
2018-04-10T15:54:19.549Z,79.40
2018-04-10T15:56:46.316Z,79.80
2018-04-10T15:59:13.136Z,79.50
2018-04-10T16:01:39.881Z,79.70
2018-04-10T16:04:06.641Z,79.50
2018-04-10T16:06:33.502Z,79.60
2018-04-10T16:09:00.293Z,79.30
2018-04-10T16:11:27.694Z,78.60
2018-04-10T16:13:54.384Z,79.20
2018-04-10T16:16:21.088Z,79.40
2018-04-10T16:18:47.893Z,79.80
2018-04-10T16:21:15.317Z,81.40
2018-04-10T16:23:42.065Z,81.40
2018-04-10T16:26:08.819Z,81.70
2018-04-10T16:28:36.469Z,81.10
2018-04-10T16:31:03.379Z,81.10
2018-04-10T16:33:30.077Z,81.20
2018-04-10T16:35:56.827Z,81.10
2018-04-10T16:38:24.428Z,81.20
2018-04-10T16:40:51.190Z,81.80
2018-04-10T16:43:18.087Z,82.50
2018-04-10T16:45:44.848Z,82.60
2018-04-10T16:48:11.555Z,82.20
2018-04-10T16:50:39.040Z,83.50
2018-04-10T16:53:05.771Z,83.50
2018-04-10T16:55:33.445Z,83.90
2018-04-10T16:58:00.185Z,83.90
2018-04-10T17:00:26.926Z,85.20
2018-04-10T17:02:53.718Z,85.80
2018-04-10T17:05:21.227Z,85.30
2018-04-10T17:07:48.620Z,85.20
2018-04-10T17:10:15.422Z,85.50
2018-04-10T17:12:42.810Z,85.00
2018-04-10T17:15:09.618Z,84.80
2018-04-10T17:17:36.834Z,86.00
2018-04-10T17:20:03.596Z,86.30
2018-04-10T17:22:30.600Z,86.20
2018-04-10T17:24:58.228Z,86.60
2018-04-10T17:27:25.142Z,86.60
2018-04-10T17:29:51.938Z,86.70
2018-04-10T17:32:18.691Z,86.90
2018-04-10T17:34:46.759Z,87.60
2018-04-10T17:37:13.627Z,87.50
2018-04-10T17:39:40.415Z,88.00
2018-04-10T17:42:08.122Z,88.30
2018-04-10T17:44:35.921Z,88.90
2018-04-10T17:47:02.686Z,88.90
2018-04-10T17:49:29.404Z,87.50
2018-04-10T17:51:56.148Z,87.40
2018-04-10T17:54:22.837Z,87.80
2018-04-10T17:56:50.254Z,88.10
2018-04-10T17:59:17.000Z,88.10
2018-04-10T18:01:43.706Z,88.80
2018-04-10T18:04:10.527Z,89.60
2018-04-10T18:06:38.009Z,89.50
2018-04-10T18:09:04.827Z,89.60
2018-04-10T18:11:33.102Z,89.70
2018-04-10T18:13:59.982Z,90.00
2018-04-10T18:16:26.714Z,90.00
2018-04-10T18:18:54.697Z,89.90
2018-04-10T18:21:21.596Z,89.60
2018-04-10T18:23:48.367Z,89.80
2018-04-10T18:26:15.179Z,90.00
2018-04-10T18:28:42.114Z,90.10
2018-04-10T18:31:09.005Z,90.20
2018-04-10T18:33:36.548Z,90.40
2018-04-10T18:36:03.597Z,90.40
2018-04-10T18:38:30.564Z,90.50
2018-04-10T18:40:58.310Z,90.70
2018-04-10T18:43:25.445Z,90.80
2018-04-10T18:45:52.676Z,90.80
2018-04-10T18:48:19.480Z,90.60
2018-04-10T18:50:46.355Z,90.50
2018-04-10T18:53:14.339Z,90.50
2018-04-10T18:55:42.576Z,90.60
2018-04-10T18:58:09.747Z,90.60
2018-04-10T19:00:36.554Z,90.70
2018-04-10T19:03:03.574Z,90.60
2018-04-10T19:05:30.710Z,90.60
2018-04-10T19:07:58.894Z,90.60
2018-04-10T19:10:27.615Z,90.60
2018-04-10T19:12:56.502Z,90.70
2018-04-10T19:15:24.450Z,90.90
2018-04-10T19:17:51.949Z,90.90
2018-04-10T19:20:19.830Z,90.90
2018-04-10T19:22:47.499Z,90.80
2018-04-10T19:25:15.083Z,90.80
2018-04-10T19:27:42.436Z,90.70
2018-04-10T19:30:09.336Z,90.90
2018-04-10T19:32:36.039Z,91.00
2018-04-10T19:35:02.894Z,91.00
2018-04-10T19:37:29.607Z,91.10
2018-04-10T19:39:56.312Z,91.20
2018-04-10T19:42:23.856Z,91.40
2018-04-10T19:44:50.566Z,91.40
2018-04-10T19:47:17.261Z,91.40
2018-04-10T19:49:44.750Z,91.30
2018-04-10T19:52:11.495Z,91.30
2018-04-10T19:54:38.212Z,91.30
2018-04-10T19:57:05.043Z,91.40
2018-04-10T19:59:31.725Z,91.40
2018-04-10T20:01:58.983Z,91.40
2018-04-10T20:04:25.846Z,91.50
2018-04-10T20:06:52.486Z,91.50
2018-04-10T20:09:19.147Z,91.40
2018-04-10T20:11:45.957Z,91.40
2018-04-10T20:14:12.750Z,91.40
2018-04-10T20:16:39.400Z,91.40
2018-04-10T20:19:06.170Z,91.50
2018-04-10T20:21:33.178Z,91.60
2018-04-10T20:23:59.875Z,91.40
2018-04-10T20:26:26.621Z,91.40
2018-04-10T20:28:53.307Z,91.50
2018-04-10T20:31:20.008Z,91.50
2018-04-10T20:33:47.436Z,91.30
2018-04-10T20:36:14.114Z,91.30
2018-04-10T20:38:40.801Z,91.80
2018-04-10T20:41:07.624Z,91.60
2018-04-10T20:43:34.321Z,91.70
2018-04-10T20:46:01.810Z,91.60
2018-04-10T20:48:29.600Z,91.50
2018-04-10T20:50:56.330Z,91.40
2018-04-10T20:53:22.960Z,91.50
2018-04-10T20:55:49.636Z,91.40
2018-04-10T20:58:16.332Z,91.50
2018-04-10T21:00:43.102Z,91.40
2018-04-10T21:03:09.756Z,91.30
2018-04-10T21:05:36.437Z,91.30
2018-04-10T21:08:03.161Z,91.20
2018-04-10T21:10:30.536Z,91.30
2018-04-10T21:12:57.200Z,91.30
2018-04-10T21:15:23.903Z,91.80
2018-04-10T21:17:50.579Z,91.50
2018-04-10T21:20:17.282Z,91.60
2018-04-10T21:22:43.963Z,91.70
2018-04-10T21:25:11.564Z,91.90
2018-04-10T21:27:38.916Z,91.90
2018-04-10T21:30:06.312Z,91.90
2018-04-10T21:32:32.872Z,91.90
2018-04-10T21:35:00.233Z,91.90
2018-04-10T21:37:26.879Z,91.90
2018-04-10T21:39:53.367Z,91.90
2018-04-10T21:42:19.804Z,91.90
2018-04-10T21:44:46.227Z,91.90
2018-04-10T21:47:12.616Z,91.90
2018-04-10T21:49:39.054Z,91.90
2018-04-10T21:52:06.199Z,92.00
2018-04-10T21:54:32.600Z,92.00
2018-04-10T21:56:58.987Z,92.10
2018-04-10T21:59:26.067Z,92.20
2018-04-10T22:01:53.239Z,92.10
2018-04-10T22:04:19.629Z,92.00
2018-04-10T22:06:46.011Z,92.10
2018-04-10T22:09:12.451Z,92.20
2018-04-10T22:11:38.805Z,92.10
2018-04-10T22:14:05.243Z,92.10
2018-04-10T22:16:31.624Z,92.00
2018-04-10T22:18:58.046Z,91.90
2018-04-10T22:21:24.431Z,92.00
2018-04-10T22:23:51.578Z,92.00
2018-04-10T22:26:18.059Z,92.00
2018-04-10T22:28:44.443Z,91.90
2018-04-10T22:31:10.943Z,91.90
2018-04-10T22:33:37.400Z,91.90
2018-04-10T22:36:03.756Z,91.80
2018-04-10T22:38:30.264Z,91.90
2018-04-10T22:40:56.674Z,92.00
2018-04-10T22:43:23.019Z,91.90
2018-04-10T22:45:49.467Z,92.00
2018-04-10T22:48:15.850Z,92.00
2018-04-10T22:50:42.319Z,92.00
2018-04-10T22:53:08.657Z,92.00
2018-04-10T22:55:35.045Z,92.10
2018-04-10T22:58:01.428Z,92.10
2018-04-10T23:13:54.668Z,92.30
2018-04-10T23:16:24.528Z,92.30
2018-04-10T23:18:53.585Z,92.30
2018-04-10T23:21:23.432Z,92.10
2018-04-10T23:23:52.473Z,92.10
2018-04-10T23:26:21.549Z,92.30
2018-04-10T23:28:50.636Z,92.20
2018-04-10T23:31:19.709Z,92.10
2018-04-10T23:33:48.783Z,92.20
2018-04-10T23:36:18.637Z,92.30
2018-04-10T23:38:47.701Z,92.30
2018-04-10T23:41:17.549Z,92.30
2018-04-10T23:43:46.625Z,92.30
2018-04-10T23:46:15.679Z,92.30
2018-04-10T23:48:44.767Z,92.30
2018-04-10T23:51:15.320Z,92.30
2018-04-10T23:53:45.174Z,92.20
2018-04-10T23:56:14.221Z,92.20
2018-04-10T23:58:44.066Z,92.00
